DAL623 KSLC-PHOG
Flight info
| Callsign | DAL623 |
|---|---|
| Flight time | N/A |
| Altitude | 36000 |
| Route | DEZRT2 BAM FMG PYE BEBOP R464 BILLO/N0451F380 R464 BITTA LNDHY1 |
| Aircraft | B763/H-SDE3FGHIM3RWXY/LB1 |
Departure
| Time | N/A |
|---|---|
| Airport | Salt Lake City International Airport (KSLC) |
Arrival
| Time | 2026-05-04 00:09 |
|---|---|
| Airport | Kahului International Airport (PHOG) |
| Time | Latitude | Longitude | Altitude | Speed | Heading |
|---|---|---|---|---|---|
| 2026-05-03 20:15 | 35.20948 | -130.96599 | 38066 ft | 428 kts | 251° |
| 2026-05-03 20:15 | 35.18724 | -131.03282 | 38068 ft | 427 kts | 251° |
| 2026-05-03 20:16 | 35.16489 | -131.09987 | 38068 ft | 427 kts | 251° |
| 2026-05-03 20:16 | 35.14244 | -131.16704 | 38071 ft | 426 kts | 251° |
| 2026-05-03 20:17 | 35.12005 | -131.23389 | 38070 ft | 426 kts | 251° |
| 2026-05-03 20:17 | 35.09775 | -131.30035 | 38076 ft | 427 kts | 251° |
| 2026-05-03 20:18 | 35.07518 | -131.36745 | 38073 ft | 426 kts | 251° |
| 2026-05-03 20:18 | 35.05278 | -131.43390 | 38074 ft | 426 kts | 252° |
| 2026-05-03 20:19 | 35.03027 | -131.50053 | 38077 ft | 426 kts | 252° |
| 2026-05-03 20:19 | 35.00777 | -131.56699 | 38075 ft | 426 kts | 252° |
| 2026-05-03 20:20 | 34.98518 | -131.63358 | 38077 ft | 427 kts | 252° |
| 2026-05-03 20:20 | 34.96239 | -131.70059 | 38091 ft | 427 kts | 251° |
| 2026-05-03 20:21 | 34.93980 | -131.76688 | 38090 ft | 425 kts | 251° |
| 2026-05-03 20:21 | 34.91720 | -131.83305 | 38096 ft | 426 kts | 251° |
| 2026-05-03 20:22 | 34.89445 | -131.89952 | 38091 ft | 426 kts | 252° |
| 2026-05-03 20:22 | 34.87169 | -131.96591 | 38087 ft | 425 kts | 252° |
| 2026-05-03 20:23 | 34.84889 | -132.03226 | 38095 ft | 425 kts | 252° |
| 2026-05-03 20:23 | 34.82613 | -132.09834 | 38086 ft | 425 kts | 252° |
| 2026-05-03 20:24 | 34.80335 | -132.16432 | 38091 ft | 426 kts | 252° |
| 2026-05-03 20:24 | 34.78041 | -132.23065 | 38111 ft | 425 kts | 252° |
| 2026-05-03 20:25 | 34.75743 | -132.29695 | 38099 ft | 427 kts | 253° |
| 2026-05-03 20:25 | 34.73455 | -132.36281 | 38103 ft | 426 kts | 253° |
| 2026-05-03 20:26 | 34.71158 | -132.42883 | 38087 ft | 425 kts | 253° |
| 2026-05-03 20:26 | 34.68843 | -132.49518 | 38100 ft | 427 kts | 253° |
| 2026-05-03 20:27 | 34.66533 | -132.56125 | 38106 ft | 427 kts | 253° |
| 2026-05-03 20:27 | 34.64223 | -132.62718 | 38096 ft | 426 kts | 253° |
| 2026-05-03 20:28 | 34.61901 | -132.69334 | 38126 ft | 426 kts | 253° |
| 2026-05-03 20:28 | 34.59581 | -132.75934 | 38123 ft | 429 kts | 253° |
| 2026-05-03 20:29 | 34.57239 | -132.82579 | 38116 ft | 429 kts | 253° |
| 2026-05-03 20:29 | 34.54898 | -132.89203 | 38122 ft | 429 kts | 253° |
| 2026-05-03 20:30 | 34.52552 | -132.95831 | 38132 ft | 430 kts | 253° |
| 2026-05-03 20:30 | 34.50194 | -133.02477 | 38127 ft | 428 kts | 253° |
| 2026-05-03 20:31 | 34.47843 | -133.09091 | 38142 ft | 428 kts | 253° |
| 2026-05-03 20:31 | 34.45492 | -133.15692 | 38132 ft | 431 kts | 254° |
| 2026-05-03 20:32 | 34.43127 | -133.22316 | 38112 ft | 429 kts | 254° |
| 2026-05-03 20:32 | 34.40761 | -133.28932 | 38145 ft | 428 kts | 254° |
| 2026-05-03 20:33 | 34.38403 | -133.35512 | 38137 ft | 427 kts | 254° |
| 2026-05-03 20:33 | 34.36053 | -133.42053 | 38152 ft | 429 kts | 254° |
| 2026-05-03 20:34 | 34.33664 | -133.48697 | 38151 ft | 429 kts | 254° |
| 2026-05-03 20:34 | 34.31295 | -133.55260 | 38142 ft | 427 kts | 255° |
| 2026-05-03 20:35 | 34.28928 | -133.61810 | 38131 ft | 426 kts | 255° |
| 2026-05-03 20:35 | 34.26565 | -133.68339 | 38162 ft | 426 kts | 254° |
| 2026-05-03 20:36 | 34.24171 | -133.74936 | 38148 ft | 428 kts | 254° |
| 2026-05-03 20:36 | 34.21790 | -133.81485 | 38146 ft | 427 kts | 254° |
| 2026-05-03 20:37 | 34.19415 | -133.88003 | 38138 ft | 428 kts | 255° |
| 2026-05-03 20:37 | 34.17005 | -133.94608 | 38148 ft | 427 kts | 254° |
| 2026-05-03 20:38 | 34.14621 | -134.01121 | 38142 ft | 425 kts | 255° |
| 2026-05-03 20:38 | 34.12249 | -134.07594 | 38151 ft | 427 kts | 255° |
| 2026-05-03 20:39 | 34.09839 | -134.14160 | 38148 ft | 428 kts | 255° |
| 2026-05-03 20:39 | 34.07432 | -134.20697 | 38147 ft | 426 kts | 254° |
| 2026-05-03 20:40 | 34.05037 | -134.27197 | 38161 ft | 428 kts | 254° |
| 2026-05-03 20:40 | 34.02613 | -134.33756 | 38165 ft | 430 kts | 254° |
| 2026-05-03 20:41 | 34.00174 | -134.40347 | 38164 ft | 429 kts | 254° |
| 2026-05-03 20:41 | 33.97767 | -134.46846 | 38156 ft | 428 kts | 254° |
| 2026-05-03 20:42 | 33.95335 | -134.53395 | 38168 ft | 429 kts | 254° |
| 2026-05-03 20:42 | 33.92910 | -134.59912 | 38157 ft | 428 kts | 254° |
| 2026-05-03 20:43 | 33.90469 | -134.66463 | 38168 ft | 432 kts | 253° |
| 2026-05-03 20:43 | 33.88014 | -134.73036 | 38147 ft | 433 kts | 253° |
| 2026-05-03 20:44 | 33.85551 | -134.79611 | 38162 ft | 431 kts | 253° |
| 2026-05-03 20:44 | 33.83082 | -134.86198 | 38162 ft | 433 kts | 253° |
| 2026-05-03 20:45 | 33.80604 | -134.92792 | 38163 ft | 433 kts | 253° |
| 2026-05-03 20:45 | 33.78136 | -134.99348 | 38165 ft | 434 kts | 253° |
| 2026-05-03 20:46 | 33.75631 | -135.05991 | 38177 ft | 437 kts | 252° |
| 2026-05-03 20:46 | 33.73133 | -135.12595 | 38168 ft | 436 kts | 253° |
| 2026-05-03 20:47 | 33.70638 | -135.19180 | 38177 ft | 435 kts | 252° |
| 2026-05-03 20:47 | 33.68126 | -135.25804 | 38171 ft | 438 kts | 252° |
| 2026-05-03 20:48 | 33.65596 | -135.32454 | 38185 ft | 438 kts | 252° |
| 2026-05-03 20:48 | 33.63068 | -135.39088 | 38170 ft | 438 kts | 252° |
| 2026-05-03 20:49 | 33.60536 | -135.45721 | 38183 ft | 440 kts | 252° |
| 2026-05-03 20:49 | 33.57997 | -135.52359 | 38174 ft | 441 kts | 252° |
| 2026-05-03 20:50 | 33.55430 | -135.59058 | 38172 ft | 443 kts | 252° |
| 2026-05-03 20:50 | 33.52861 | -135.65742 | 38170 ft | 441 kts | 251° |
| 2026-05-03 20:51 | 33.50303 | -135.72389 | 38187 ft | 443 kts | 251° |
| 2026-05-03 20:51 | 33.47716 | -135.79097 | 38178 ft | 444 kts | 251° |
| 2026-05-03 20:52 | 33.45143 | -135.85756 | 38187 ft | 443 kts | 251° |
| 2026-05-03 20:52 | 33.42561 | -135.92427 | 38204 ft | 444 kts | 251° |
| 2026-05-03 20:53 | 33.39965 | -135.99123 | 38197 ft | 448 kts | 251° |
| 2026-05-03 20:53 | 33.37339 | -136.05876 | 38199 ft | 447 kts | 251° |
| 2026-05-03 20:54 | 33.34719 | -136.12602 | 38201 ft | 446 kts | 251° |
| 2026-05-03 20:54 | 33.30791 | -136.22664 | 38193 ft | 447 kts | 251° |
| 2026-05-03 20:55 | 33.28180 | -136.29335 | 38196 ft | 447 kts | 251° |
| 2026-05-03 20:55 | 33.25536 | -136.36078 | 38202 ft | 446 kts | 251° |
| 2026-05-03 20:56 | 33.22902 | -136.42778 | 38206 ft | 447 kts | 251° |
| 2026-05-03 20:56 | 33.20262 | -136.49486 | 38204 ft | 448 kts | 251° |
| 2026-05-03 20:57 | 33.17612 | -136.56203 | 38209 ft | 449 kts | 250° |
| 2026-05-03 20:57 | 33.14962 | -136.62907 | 38211 ft | 449 kts | 250° |
| 2026-05-03 20:58 | 33.12300 | -136.69629 | 38218 ft | 450 kts | 250° |
| 2026-05-03 20:58 | 33.09622 | -136.76378 | 38217 ft | 451 kts | 250° |
| 2026-05-03 20:59 | 33.06945 | -136.83110 | 38215 ft | 452 kts | 250° |
| 2026-05-03 20:59 | 33.04272 | -136.89818 | 38215 ft | 451 kts | 250° |
| 2026-05-03 21:00 | 33.02026 | -136.95447 | 38215 ft | 451 kts | 250° |
| 2026-05-03 21:00 | 32.98883 | -137.03308 | 38218 ft | 451 kts | 250° |
| 2026-05-03 21:01 | 32.96205 | -137.09990 | 38219 ft | 451 kts | 249° |
| 2026-05-03 21:01 | 32.93494 | -137.16742 | 38224 ft | 452 kts | 249° |
| 2026-05-03 21:02 | 32.90787 | -137.23471 | 38224 ft | 453 kts | 249° |
| 2026-05-03 21:02 | 32.88075 | -137.30200 | 38209 ft | 452 kts | 249° |
| 2026-05-03 21:03 | 32.85371 | -137.36894 | 38214 ft | 451 kts | 249° |
| 2026-05-03 21:03 | 32.82657 | -137.43605 | 38219 ft | 453 kts | 249° |
| 2026-05-03 21:04 | 32.79915 | -137.50365 | 38220 ft | 452 kts | 249° |
| 2026-05-03 21:04 | 32.77192 | -137.57071 | 38221 ft | 452 kts | 249° |
| 2026-05-03 21:05 | 32.74460 | -137.63783 | 38222 ft | 453 kts | 249° |
| 2026-05-03 21:05 | 32.71717 | -137.70509 | 38222 ft | 454 kts | 248° |
| 2026-05-03 21:06 | 32.68973 | -137.77225 | 38226 ft | 454 kts | 248° |
| 2026-05-03 21:06 | 32.66220 | -137.83952 | 38221 ft | 453 kts | 248° |
| 2026-05-03 21:07 | 32.63471 | -137.90657 | 38226 ft | 455 kts | 248° |
| 2026-05-03 21:07 | 32.60706 | -137.97385 | 38221 ft | 455 kts | 248° |
| 2026-05-03 21:08 | 32.58100 | -138.03714 | 38226 ft | 456 kts | 248° |
| 2026-05-03 21:08 | 32.55321 | -138.10454 | 38219 ft | 457 kts | 248° |
| 2026-05-03 21:09 | 32.52530 | -138.17207 | 38215 ft | 456 kts | 248° |
| 2026-05-03 21:09 | 32.49741 | -138.23946 | 38217 ft | 458 kts | 248° |
| 2026-05-03 21:10 | 32.46927 | -138.30730 | 38223 ft | 459 kts | 248° |
| 2026-05-03 21:10 | 32.44125 | -138.37471 | 38221 ft | 458 kts | 248° |
| 2026-05-03 21:11 | 32.41321 | -138.44203 | 38223 ft | 459 kts | 248° |
| 2026-05-03 21:11 | 32.38502 | -138.50963 | 38230 ft | 459 kts | 248° |
| 2026-05-03 21:12 | 32.35672 | -138.57732 | 38228 ft | 459 kts | 248° |
| 2026-05-03 21:12 | 32.32863 | -138.64439 | 38228 ft | 458 kts | 248° |
| 2026-05-03 21:13 | 32.30035 | -138.71182 | 38236 ft | 459 kts | 247° |
| 2026-05-03 21:13 | 32.27198 | -138.77931 | 38234 ft | 461 kts | 247° |
| 2026-05-03 21:14 | 32.24332 | -138.84735 | 38234 ft | 461 kts | 247° |
| 2026-05-03 21:14 | 32.21497 | -138.91455 | 38238 ft | 460 kts | 247° |
| 2026-05-03 21:15 | 32.18632 | -138.98230 | 38238 ft | 460 kts | 247° |
| 2026-05-03 21:15 | 32.15792 | -139.04936 | 38238 ft | 461 kts | 247° |
| 2026-05-03 21:16 | 32.12924 | -139.11696 | 38241 ft | 462 kts | 247° |
| 2026-05-03 21:16 | 32.10057 | -139.18440 | 38242 ft | 462 kts | 247° |
| 2026-05-03 21:17 | 32.07173 | -139.25209 | 38239 ft | 462 kts | 247° |
| 2026-05-03 21:17 | 32.04303 | -139.31937 | 38239 ft | 461 kts | 247° |
| 2026-05-03 21:18 | 32.01419 | -139.38681 | 38239 ft | 462 kts | 246° |
| 2026-05-03 21:18 | 31.98539 | -139.45406 | 38240 ft | 463 kts | 247° |
| 2026-05-03 21:19 | 31.95650 | -139.52138 | 38241 ft | 462 kts | 246° |
| 2026-05-03 21:19 | 31.92740 | -139.58908 | 38241 ft | 462 kts | 246° |
| 2026-05-03 21:20 | 31.89846 | -139.65626 | 38241 ft | 463 kts | 246° |
| 2026-05-03 21:20 | 31.86935 | -139.72372 | 38231 ft | 463 kts | 246° |
| 2026-05-03 21:21 | 31.84034 | -139.79083 | 38231 ft | 464 kts | 246° |
| 2026-05-03 21:21 | 31.81101 | -139.85854 | 38231 ft | 465 kts | 246° |
| 2026-05-03 21:22 | 31.78176 | -139.92595 | 38229 ft | 465 kts | 246° |
| 2026-05-03 21:22 | 31.75241 | -139.99345 | 38227 ft | 464 kts | 246° |
| 2026-05-03 21:23 | 31.72301 | -140.06097 | 38226 ft | 465 kts | 246° |
| 2026-05-03 21:23 | 31.69380 | -140.12791 | 38231 ft | 465 kts | 246° |
| 2026-05-03 21:24 | 31.66422 | -140.19559 | 38229 ft | 466 kts | 246° |
| 2026-05-03 21:24 | 31.63456 | -140.26331 | 38231 ft | 466 kts | 245° |
| 2026-05-03 21:25 | 31.60501 | -140.33066 | 38229 ft | 465 kts | 245° |
| 2026-05-03 21:25 | 31.57560 | -140.39755 | 38230 ft | 465 kts | 245° |
| 2026-05-03 21:26 | 31.54600 | -140.46478 | 38230 ft | 465 kts | 245° |
| 2026-05-03 21:26 | 31.51619 | -140.53235 | 38231 ft | 466 kts | 245° |
| 2026-05-03 21:27 | 31.48649 | -140.59956 | 38233 ft | 466 kts | 245° |
| 2026-05-03 21:27 | 31.45667 | -140.66692 | 38231 ft | 467 kts | 245° |
| 2026-05-03 21:28 | 31.42693 | -140.73396 | 38230 ft | 466 kts | 245° |
| 2026-05-03 21:28 | 31.39716 | -140.80098 | 38225 ft | 467 kts | 245° |
| 2026-05-03 21:29 | 31.36715 | -140.86836 | 38223 ft | 467 kts | 245° |
| 2026-05-03 21:29 | 31.33731 | -140.93527 | 38222 ft | 467 kts | 245° |
| 2026-05-03 21:30 | 31.30714 | -141.00281 | 38223 ft | 468 kts | 245° |
| 2026-05-03 21:30 | 31.27723 | -141.06964 | 38222 ft | 467 kts | 245° |
| 2026-05-03 21:31 | 31.24707 | -141.13689 | 38221 ft | 467 kts | 245° |
| 2026-05-03 21:31 | 31.21711 | -141.20358 | 38223 ft | 467 kts | 245° |
| 2026-05-03 21:32 | 31.18692 | -141.27068 | 38220 ft | 467 kts | 245° |
| 2026-05-03 21:32 | 31.15675 | -141.33756 | 38224 ft | 469 kts | 245° |
| 2026-05-03 21:33 | 31.12621 | -141.40509 | 38221 ft | 469 kts | 244° |
| 2026-05-03 21:33 | 31.09591 | -141.47198 | 38222 ft | 467 kts | 244° |
| 2026-05-03 21:34 | 31.06562 | -141.53874 | 38223 ft | 466 kts | 244° |
| 2026-05-03 21:34 | 31.03533 | -141.60536 | 38223 ft | 468 kts | 244° |
| 2026-05-03 21:35 | 31.00491 | -141.67218 | 38218 ft | 468 kts | 244° |
| 2026-05-03 21:35 | 30.97440 | -141.73906 | 38217 ft | 469 kts | 244° |
| 2026-05-03 21:36 | 30.94389 | -141.80583 | 38216 ft | 469 kts | 244° |
| 2026-05-03 21:36 | 30.91334 | -141.87256 | 38219 ft | 468 kts | 244° |
| 2026-05-03 21:37 | 30.88260 | -141.93959 | 38211 ft | 468 kts | 244° |
| 2026-05-03 21:37 | 30.85214 | -142.00589 | 38212 ft | 468 kts | 244° |
| 2026-05-03 21:38 | 30.82147 | -142.07253 | 38219 ft | 468 kts | 244° |
| 2026-05-03 21:38 | 30.79083 | -142.13901 | 38225 ft | 468 kts | 244° |
| 2026-05-03 21:39 | 30.76016 | -142.20540 | 38229 ft | 468 kts | 244° |
| 2026-05-03 21:39 | 30.72946 | -142.27177 | 38228 ft | 467 kts | 244° |
| 2026-05-03 21:40 | 30.69867 | -142.33821 | 38226 ft | 467 kts | 244° |
| 2026-05-03 21:40 | 30.66791 | -142.40446 | 38226 ft | 466 kts | 244° |
| 2026-05-03 21:41 | 30.63728 | -142.47034 | 38225 ft | 466 kts | 244° |
| 2026-05-03 21:41 | 30.60640 | -142.53662 | 38230 ft | 467 kts | 244° |
| 2026-05-03 21:42 | 30.57574 | -142.60231 | 38229 ft | 466 kts | 244° |
| 2026-05-03 21:42 | 30.54484 | -142.66843 | 38228 ft | 465 kts | 243° |
| 2026-05-03 21:43 | 30.51405 | -142.73419 | 38222 ft | 465 kts | 243° |
| 2026-05-03 21:43 | 30.48338 | -142.79958 | 38223 ft | 464 kts | 243° |
| 2026-05-03 21:44 | 30.45262 | -142.86505 | 38224 ft | 464 kts | 243° |
| 2026-05-03 21:44 | 30.42160 | -142.93097 | 38226 ft | 464 kts | 243° |
| 2026-05-03 21:45 | 30.39085 | -142.99618 | 38225 ft | 464 kts | 243° |
| 2026-05-03 21:45 | 30.35999 | -143.06154 | 38223 ft | 464 kts | 243° |
| 2026-05-03 21:46 | 30.32905 | -143.12695 | 38221 ft | 463 kts | 243° |
| 2026-05-03 21:46 | 30.29839 | -143.19165 | 38220 ft | 463 kts | 243° |
| 2026-05-03 21:47 | 30.26748 | -143.25678 | 38220 ft | 462 kts | 243° |
| 2026-05-03 21:47 | 30.23665 | -143.32164 | 38220 ft | 462 kts | 243° |
| 2026-05-03 21:48 | 30.20563 | -143.38680 | 38223 ft | 462 kts | 243° |
| 2026-05-03 21:48 | 30.17465 | -143.45172 | 38221 ft | 461 kts | 243° |
| 2026-05-03 21:49 | 30.14388 | -143.51613 | 38218 ft | 460 kts | 243° |
| 2026-05-03 21:49 | 30.11299 | -143.58069 | 38224 ft | 461 kts | 243° |
| 2026-05-03 21:50 | 30.08184 | -143.64568 | 38220 ft | 462 kts | 244° |
| 2026-05-03 21:50 | 30.05088 | -143.71014 | 38210 ft | 461 kts | 243° |
| 2026-05-03 21:51 | 30.01977 | -143.77484 | 38217 ft | 461 kts | 243° |
| 2026-05-03 21:51 | 29.98881 | -143.83910 | 38210 ft | 461 kts | 243° |
| 2026-05-03 21:52 | 29.95772 | -143.90353 | 38217 ft | 459 kts | 243° |
| 2026-05-03 21:52 | 29.92674 | -143.96765 | 38219 ft | 460 kts | 243° |
| 2026-05-03 21:53 | 29.89573 | -144.03169 | 38214 ft | 459 kts | 243° |
| 2026-05-03 21:53 | 29.86462 | -144.09586 | 38207 ft | 456 kts | 243° |
| 2026-05-03 21:54 | 29.83384 | -144.15924 | 38212 ft | 457 kts | 243° |
| 2026-05-03 21:54 | 29.80294 | -144.22276 | 38205 ft | 457 kts | 243° |
| 2026-05-03 21:55 | 29.77192 | -144.28645 | 38211 ft | 456 kts | 243° |
| 2026-05-03 21:55 | 29.74085 | -144.35010 | 38214 ft | 455 kts | 243° |
| 2026-05-03 21:56 | 29.70998 | -144.41327 | 38213 ft | 454 kts | 243° |
| 2026-05-03 21:56 | 29.67908 | -144.47639 | 38207 ft | 453 kts | 243° |
| 2026-05-03 21:57 | 29.64830 | -144.53917 | 38213 ft | 453 kts | 243° |
| 2026-05-03 21:57 | 29.61736 | -144.60216 | 38211 ft | 452 kts | 243° |
| 2026-05-03 21:58 | 29.58647 | -144.66498 | 38215 ft | 452 kts | 243° |
| 2026-05-03 21:58 | 29.55572 | -144.72740 | 38212 ft | 451 kts | 243° |
| 2026-05-03 21:59 | 29.52491 | -144.78984 | 38211 ft | 451 kts | 243° |
| 2026-05-03 21:59 | 29.49405 | -144.85229 | 38212 ft | 451 kts | 243° |
| 2026-05-03 22:00 | 29.46313 | -144.91476 | 38214 ft | 450 kts | 243° |
| 2026-05-03 22:00 | 29.43232 | -144.97693 | 38214 ft | 448 kts | 243° |
| 2026-05-03 22:01 | 29.40159 | -145.03882 | 38217 ft | 448 kts | 243° |
| 2026-05-03 22:01 | 29.37083 | -145.10068 | 38215 ft | 448 kts | 243° |
| 2026-05-03 22:02 | 29.34014 | -145.16231 | 38208 ft | 446 kts | 243° |
| 2026-05-03 22:02 | 29.30927 | -145.22421 | 38205 ft | 447 kts | 243° |
| 2026-05-03 22:03 | 29.27859 | -145.28563 | 38202 ft | 447 kts | 243° |
| 2026-05-03 22:03 | 29.24773 | -145.34731 | 38204 ft | 445 kts | 243° |
| 2026-05-03 22:04 | 29.21701 | -145.40863 | 38202 ft | 444 kts | 243° |
| 2026-05-03 22:04 | 29.18636 | -145.46971 | 38199 ft | 445 kts | 243° |
| 2026-05-03 22:05 | 29.15568 | -145.53073 | 38194 ft | 443 kts | 243° |
| 2026-05-03 22:05 | 29.12511 | -145.59149 | 38198 ft | 443 kts | 243° |
| 2026-05-03 22:06 | 29.09424 | -145.65274 | 38196 ft | 443 kts | 242° |
| 2026-05-03 22:06 | 29.06358 | -145.71347 | 38198 ft | 442 kts | 242° |
| 2026-05-03 22:07 | 29.03298 | -145.77402 | 38196 ft | 442 kts | 242° |
| 2026-05-03 22:07 | 29.00214 | -145.83493 | 38194 ft | 441 kts | 242° |
| 2026-05-03 22:08 | 28.97156 | -145.89522 | 38197 ft | 440 kts | 242° |
| 2026-05-03 22:08 | 28.94095 | -145.95550 | 38197 ft | 440 kts | 242° |
| 2026-05-03 22:09 | 28.91040 | -146.01559 | 38196 ft | 440 kts | 242° |
| 2026-05-03 22:10 | 28.86440 | -146.10588 | 38191 ft | 439 kts | 242° |
| 2026-05-03 22:10 | 28.83377 | -146.16589 | 38192 ft | 439 kts | 242° |
| 2026-05-03 22:11 | 28.80309 | -146.22591 | 38194 ft | 440 kts | 242° |
| 2026-05-03 22:11 | 28.77221 | -146.28624 | 38194 ft | 439 kts | 242° |
| 2026-05-03 22:12 | 28.74156 | -146.34604 | 38194 ft | 439 kts | 242° |
| 2026-05-03 22:12 | 28.71074 | -146.40607 | 38194 ft | 439 kts | 242° |
| 2026-05-03 22:13 | 28.67995 | -146.46596 | 38194 ft | 439 kts | 242° |
| 2026-05-03 22:13 | 28.64908 | -146.52593 | 38191 ft | 439 kts | 242° |
| 2026-05-03 22:14 | 28.61834 | -146.58553 | 38194 ft | 438 kts | 242° |
| 2026-05-03 22:14 | 28.58761 | -146.64504 | 38194 ft | 438 kts | 243° |
| 2026-05-03 22:15 | 28.55673 | -146.70476 | 38196 ft | 438 kts | 242° |
| 2026-05-03 22:15 | 28.52600 | -146.76411 | 38197 ft | 438 kts | 242° |
| 2026-05-03 22:16 | 28.49517 | -146.82358 | 38197 ft | 438 kts | 242° |
| 2026-05-03 22:16 | 28.46429 | -146.88303 | 38196 ft | 438 kts | 242° |
| 2026-05-03 22:17 | 28.43343 | -146.94238 | 38201 ft | 437 kts | 242° |
| 2026-05-03 22:17 | 28.40235 | -147.00206 | 38195 ft | 437 kts | 242° |
| 2026-05-03 22:18 | 28.37155 | -147.06113 | 38193 ft | 436 kts | 242° |
| 2026-05-03 22:18 | 28.34061 | -147.12035 | 38195 ft | 436 kts | 242° |
| 2026-05-03 22:19 | 28.30983 | -147.17921 | 38195 ft | 436 kts | 242° |
| 2026-05-03 22:19 | 28.27881 | -147.23843 | 38194 ft | 437 kts | 242° |
| 2026-05-03 22:20 | 28.24782 | -147.29755 | 38193 ft | 437 kts | 242° |
| 2026-05-03 22:20 | 28.21691 | -147.35640 | 38193 ft | 437 kts | 242° |
| 2026-05-03 22:21 | 28.18577 | -147.41560 | 38193 ft | 437 kts | 242° |
| 2026-05-03 22:21 | 28.15481 | -147.47438 | 38194 ft | 437 kts | 242° |
| 2026-05-03 22:22 | 28.12362 | -147.53354 | 38194 ft | 436 kts | 242° |
| 2026-05-03 22:22 | 28.09248 | -147.59248 | 38194 ft | 437 kts | 242° |
| 2026-05-03 22:23 | 28.06148 | -147.65111 | 38194 ft | 437 kts | 242° |
| 2026-05-03 22:23 | 28.03019 | -147.71019 | 38191 ft | 437 kts | 242° |
| 2026-05-03 22:24 | 27.99909 | -147.76884 | 38180 ft | 437 kts | 242° |
| 2026-05-03 22:24 | 27.96782 | -147.82771 | 38175 ft | 437 kts | 242° |
| 2026-05-03 22:25 | 27.93656 | -147.88650 | 38175 ft | 437 kts | 242° |
| 2026-05-03 22:25 | 27.90522 | -147.94534 | 38174 ft | 437 kts | 242° |
| 2026-05-03 22:26 | 27.87393 | -148.00403 | 38171 ft | 438 kts | 242° |
| 2026-05-03 22:26 | 27.84261 | -148.06264 | 38173 ft | 437 kts | 242° |
| 2026-05-03 22:27 | 27.81112 | -148.12152 | 38172 ft | 436 kts | 242° |
| 2026-05-03 22:27 | 27.77979 | -148.18002 | 38173 ft | 437 kts | 242° |
| 2026-05-03 22:28 | 27.74834 | -148.23865 | 38172 ft | 438 kts | 241° |
| 2026-05-03 22:28 | 27.71706 | -148.29688 | 38172 ft | 436 kts | 242° |
| 2026-05-03 22:29 | 27.68556 | -148.35545 | 38172 ft | 436 kts | 242° |
| 2026-05-03 22:29 | 27.65415 | -148.41377 | 38170 ft | 437 kts | 242° |
| 2026-05-03 22:30 | 27.62256 | -148.47234 | 38172 ft | 436 kts | 242° |
| 2026-05-03 22:30 | 27.59129 | -148.53026 | 38169 ft | 436 kts | 242° |
| 2026-05-03 22:31 | 27.55962 | -148.58881 | 38172 ft | 435 kts | 242° |
| 2026-05-03 22:31 | 27.52830 | -148.64665 | 38170 ft | 436 kts | 242° |
| 2026-05-03 22:32 | 27.49677 | -148.70480 | 38173 ft | 437 kts | 241° |
| 2026-05-03 22:32 | 27.46502 | -148.76327 | 38176 ft | 436 kts | 241° |
| 2026-05-03 22:33 | 27.43356 | -148.82115 | 38174 ft | 436 kts | 241° |
| 2026-05-03 22:33 | 27.40194 | -148.87924 | 38178 ft | 436 kts | 241° |
| 2026-05-03 22:34 | 27.37022 | -148.93742 | 38174 ft | 435 kts | 241° |
| 2026-05-03 22:34 | 27.33869 | -148.99518 | 38175 ft | 436 kts | 241° |
| 2026-05-03 22:35 | 27.30733 | -149.05255 | 38173 ft | 435 kts | 241° |
| 2026-05-03 22:35 | 27.27567 | -149.11041 | 38175 ft | 435 kts | 241° |
| 2026-05-03 22:36 | 27.24408 | -149.16806 | 38175 ft | 436 kts | 241° |
| 2026-05-03 22:36 | 27.21228 | -149.22603 | 38174 ft | 435 kts | 241° |
| 2026-05-03 22:37 | 27.18048 | -149.28389 | 38173 ft | 436 kts | 241° |
| 2026-05-03 22:37 | 27.14877 | -149.34152 | 38174 ft | 435 kts | 241° |
| 2026-05-03 22:38 | 27.11705 | -149.39911 | 38174 ft | 435 kts | 241° |
| 2026-05-03 22:38 | 27.08530 | -149.45666 | 38174 ft | 435 kts | 241° |
| 2026-05-03 22:39 | 27.05345 | -149.51433 | 38174 ft | 434 kts | 241° |
| 2026-05-03 22:39 | 27.02180 | -149.57156 | 38174 ft | 434 kts | 241° |
| 2026-05-03 22:40 | 26.98993 | -149.62911 | 38172 ft | 435 kts | 241° |
| 2026-05-03 22:40 | 26.95811 | -149.68648 | 38177 ft | 436 kts | 240° |
| 2026-05-03 22:41 | 26.92611 | -149.74411 | 38173 ft | 435 kts | 240° |
| 2026-05-03 22:41 | 26.89422 | -149.80150 | 38173 ft | 434 kts | 240° |
| 2026-05-03 22:42 | 26.86226 | -149.85890 | 38170 ft | 434 kts | 240° |
| 2026-05-03 22:42 | 26.83041 | -149.91606 | 38169 ft | 434 kts | 240° |
| 2026-05-03 22:43 | 26.79859 | -149.97307 | 38166 ft | 434 kts | 240° |
| 2026-05-03 22:43 | 26.76659 | -150.03033 | 38169 ft | 435 kts | 240° |
| 2026-05-03 22:44 | 26.73466 | -150.08739 | 38167 ft | 435 kts | 240° |
| 2026-05-03 22:44 | 26.70260 | -150.14461 | 38168 ft | 434 kts | 240° |
| 2026-05-03 22:45 | 26.67051 | -150.20183 | 38166 ft | 433 kts | 240° |
| 2026-05-03 22:45 | 26.63862 | -150.25861 | 38164 ft | 434 kts | 240° |
| 2026-05-03 22:46 | 26.60665 | -150.31545 | 38161 ft | 434 kts | 240° |
| 2026-05-03 22:46 | 26.57455 | -150.37245 | 38156 ft | 433 kts | 240° |
| 2026-05-03 22:47 | 26.54246 | -150.42938 | 38158 ft | 433 kts | 240° |
| 2026-05-03 22:47 | 26.51049 | -150.48602 | 38157 ft | 434 kts | 240° |
| 2026-05-03 22:48 | 26.47834 | -150.54289 | 38156 ft | 434 kts | 240° |
| 2026-05-03 22:48 | 26.44623 | -150.59963 | 38154 ft | 433 kts | 240° |
| 2026-05-03 22:49 | 26.41418 | -150.65619 | 38154 ft | 432 kts | 240° |
| 2026-05-03 22:49 | 26.38207 | -150.71278 | 38155 ft | 433 kts | 240° |
| 2026-05-03 22:50 | 26.34985 | -150.76950 | 38158 ft | 434 kts | 240° |
| 2026-05-03 22:50 | 26.31750 | -150.82638 | 38157 ft | 433 kts | 240° |
| 2026-05-03 22:51 | 26.28540 | -150.88275 | 38155 ft | 433 kts | 240° |
| 2026-05-03 22:51 | 26.25324 | -150.93915 | 38154 ft | 433 kts | 240° |
| 2026-05-03 22:52 | 26.22090 | -150.99580 | 38151 ft | 432 kts | 240° |
| 2026-05-03 22:52 | 26.18864 | -151.05225 | 38155 ft | 433 kts | 240° |
| 2026-05-03 22:53 | 26.15643 | -151.10851 | 38158 ft | 434 kts | 240° |
| 2026-05-03 22:53 | 26.12404 | -151.16504 | 38151 ft | 432 kts | 240° |
| 2026-05-03 22:54 | 26.09180 | -151.22125 | 38155 ft | 433 kts | 240° |
| 2026-05-03 22:54 | 26.05951 | -151.27745 | 38150 ft | 433 kts | 240° |
| 2026-05-03 22:55 | 26.02710 | -151.33380 | 38151 ft | 432 kts | 240° |
| 2026-05-03 22:55 | 25.99475 | -151.38998 | 38155 ft | 432 kts | 240° |
| 2026-05-03 22:56 | 25.96253 | -151.44586 | 38153 ft | 432 kts | 240° |
| 2026-05-03 22:56 | 25.93012 | -151.50201 | 38149 ft | 432 kts | 240° |
| 2026-05-03 22:57 | 25.89782 | -151.55789 | 38153 ft | 431 kts | 240° |
| 2026-05-03 22:57 | 25.86547 | -151.61381 | 38149 ft | 431 kts | 240° |
| 2026-05-03 22:58 | 25.83309 | -151.66971 | 38152 ft | 431 kts | 240° |
| 2026-05-03 22:58 | 25.80065 | -151.72563 | 38150 ft | 431 kts | 240° |
| 2026-05-03 22:59 | 25.76834 | -151.78126 | 38148 ft | 430 kts | 240° |
| 2026-05-03 22:59 | 25.73600 | -151.83688 | 38148 ft | 431 kts | 239° |
| 2026-05-03 23:00 | 25.70353 | -151.89267 | 38149 ft | 432 kts | 240° |
| 2026-05-03 23:00 | 25.67091 | -151.94862 | 38147 ft | 431 kts | 240° |
| 2026-05-03 23:01 | 25.63850 | -152.00418 | 38143 ft | 429 kts | 240° |
| 2026-05-03 23:01 | 25.60601 | -152.05980 | 38144 ft | 430 kts | 239° |
| 2026-05-03 23:02 | 25.57360 | -152.11520 | 38144 ft | 431 kts | 239° |
| 2026-05-03 23:02 | 25.54114 | -152.17062 | 38139 ft | 431 kts | 239° |
| 2026-05-03 23:03 | 25.50857 | -152.22617 | 38138 ft | 430 kts | 239° |
| 2026-05-03 23:03 | 25.47612 | -152.28146 | 38138 ft | 431 kts | 239° |
| 2026-05-03 23:04 | 25.44331 | -152.33728 | 38136 ft | 431 kts | 239° |
| 2026-05-03 23:04 | 25.41073 | -152.39265 | 38138 ft | 430 kts | 239° |
| 2026-05-03 23:05 | 25.37830 | -152.44769 | 38135 ft | 430 kts | 239° |
| 2026-05-03 23:05 | 25.34560 | -152.50314 | 38136 ft | 430 kts | 239° |
| 2026-05-03 23:06 | 25.31306 | -152.55826 | 38136 ft | 430 kts | 239° |
| 2026-05-03 23:06 | 25.28043 | -152.61345 | 38131 ft | 430 kts | 239° |
| 2026-05-03 23:07 | 25.24777 | -152.66864 | 38141 ft | 430 kts | 239° |
| 2026-05-03 23:07 | 25.21483 | -152.72423 | 38141 ft | 432 kts | 239° |
| 2026-05-03 23:08 | 25.18213 | -152.77934 | 38140 ft | 432 kts | 239° |
| 2026-05-03 23:08 | 25.14921 | -152.83478 | 38138 ft | 431 kts | 239° |
| 2026-05-03 23:09 | 25.11653 | -152.88974 | 38139 ft | 430 kts | 239° |
| 2026-05-03 23:09 | 25.08372 | -152.94485 | 38137 ft | 430 kts | 239° |
| 2026-05-03 23:10 | 25.05077 | -153.00014 | 38138 ft | 431 kts | 239° |
| 2026-05-03 23:10 | 25.01800 | -153.05504 | 38133 ft | 431 kts | 239° |
| 2026-05-03 23:11 | 24.98509 | -153.11015 | 38134 ft | 431 kts | 239° |
| 2026-05-03 23:11 | 24.95228 | -153.16501 | 38125 ft | 431 kts | 239° |
| 2026-05-03 23:12 | 24.91932 | -153.22006 | 38119 ft | 431 kts | 239° |
| 2026-05-03 23:12 | 24.88645 | -153.27489 | 38115 ft | 430 kts | 239° |
| 2026-05-03 23:13 | 24.85357 | -153.32967 | 38120 ft | 429 kts | 239° |
| 2026-05-03 23:13 | 24.82069 | -153.38441 | 38122 ft | 429 kts | 239° |
| 2026-05-03 23:14 | 24.78770 | -153.43926 | 38124 ft | 430 kts | 239° |
| 2026-05-03 23:14 | 24.75476 | -153.49396 | 38123 ft | 430 kts | 239° |
| 2026-05-03 23:15 | 24.72181 | -153.54862 | 38126 ft | 429 kts | 239° |
| 2026-05-03 23:15 | 24.68891 | -153.60312 | 38120 ft | 429 kts | 239° |
| 2026-05-03 23:16 | 24.65593 | -153.65771 | 38120 ft | 428 kts | 238° |
| 2026-05-03 23:16 | 24.62302 | -153.71213 | 38121 ft | 429 kts | 238° |
| 2026-05-03 23:17 | 24.59023 | -153.76627 | 38125 ft | 430 kts | 238° |
| 2026-05-03 23:17 | 24.55698 | -153.82112 | 38122 ft | 429 kts | 238° |
| 2026-05-03 23:18 | 24.52408 | -153.87532 | 38123 ft | 431 kts | 238° |
| 2026-05-03 23:18 | 24.49078 | -153.93013 | 38118 ft | 430 kts | 238° |
| 2026-05-03 23:19 | 24.45760 | -153.98467 | 38121 ft | 430 kts | 238° |
| 2026-05-03 23:19 | 24.42459 | -154.03888 | 38118 ft | 430 kts | 238° |
| 2026-05-03 23:20 | 24.39124 | -154.09358 | 38117 ft | 430 kts | 238° |
| 2026-05-03 23:20 | 24.35807 | -154.14792 | 38118 ft | 430 kts | 238° |
| 2026-05-03 23:21 | 24.32495 | -154.20213 | 38116 ft | 430 kts | 238° |
| 2026-05-03 23:21 | 24.29151 | -154.25676 | 38117 ft | 431 kts | 238° |
| 2026-05-03 23:22 | 24.24121 | -154.33818 | 38116 ft | 431 kts | 238° |
| 2026-05-03 23:22 | 24.20767 | -154.39239 | 38115 ft | 431 kts | 238° |
| 2026-05-03 23:23 | 24.17416 | -154.44650 | 38115 ft | 431 kts | 238° |
| 2026-05-03 23:23 | 24.14038 | -154.50099 | 38113 ft | 432 kts | 238° |
| 2026-05-03 23:24 | 24.10674 | -154.55521 | 38111 ft | 432 kts | 238° |
| 2026-05-03 23:24 | 24.07292 | -154.60963 | 38110 ft | 432 kts | 238° |
| 2026-05-03 23:25 | 24.03924 | -154.66377 | 38115 ft | 432 kts | 238° |
| 2026-05-03 23:25 | 24.00549 | -154.71799 | 38116 ft | 433 kts | 238° |
| 2026-05-03 23:26 | 23.97162 | -154.77232 | 38114 ft | 433 kts | 238° |
| 2026-05-03 23:26 | 23.93778 | -154.82654 | 38114 ft | 433 kts | 238° |
| 2026-05-03 23:27 | 23.90385 | -154.88086 | 38114 ft | 433 kts | 238° |
| 2026-05-03 23:27 | 23.87000 | -154.93501 | 38111 ft | 433 kts | 238° |
| 2026-05-03 23:28 | 23.83613 | -154.98910 | 38110 ft | 432 kts | 238° |
| 2026-05-03 23:28 | 23.80223 | -155.04318 | 38110 ft | 432 kts | 238° |
| 2026-05-03 23:29 | 23.76837 | -155.09715 | 38111 ft | 431 kts | 238° |
| 2026-05-03 23:29 | 23.73450 | -155.15108 | 38110 ft | 432 kts | 238° |
| 2026-05-03 23:30 | 23.70068 | -155.20487 | 38110 ft | 432 kts | 238° |
| 2026-05-03 23:30 | 23.66660 | -155.25902 | 38114 ft | 432 kts | 238° |
| 2026-05-03 23:31 | 23.63275 | -155.31274 | 38114 ft | 431 kts | 238° |
| 2026-05-03 23:31 | 23.59869 | -155.36675 | 38110 ft | 431 kts | 238° |
| 2026-05-03 23:32 | 23.56486 | -155.42020 | 38112 ft | 432 kts | 236° |
| 2026-05-03 23:32 | 23.52195 | -155.46635 | 38124 ft | 438 kts | 217° |
| 2026-05-03 23:33 | 23.46626 | -155.49440 | 38131 ft | 446 kts | 199° |
| 2026-05-03 23:33 | 23.40630 | -155.51228 | 38115 ft | 446 kts | 198° |
| 2026-05-03 23:34 | 23.34642 | -155.52937 | 38116 ft | 445 kts | 197° |
| 2026-05-03 23:34 | 23.28625 | -155.54627 | 38113 ft | 446 kts | 197° |
| 2026-05-03 23:35 | 23.22625 | -155.56302 | 38113 ft | 446 kts | 197° |
| 2026-05-03 23:35 | 23.16628 | -155.57973 | 38109 ft | 445 kts | 197° |
| 2026-05-03 23:36 | 23.10627 | -155.59642 | 38109 ft | 445 kts | 197° |
| 2026-05-03 23:36 | 23.04630 | -155.61308 | 38109 ft | 445 kts | 197° |
| 2026-05-03 23:37 | 22.98631 | -155.62975 | 37847 ft | 449 kts | 197° |
| 2026-05-03 23:37 | 22.95581 | -155.63821 | 37312 ft | 448 kts | 197° |
| 2026-05-03 23:37 | 22.92603 | -155.64647 | 36832 ft | 439 kts | 197° |
| 2026-05-03 23:38 | 22.89647 | -155.65465 | 36365 ft | 431 kts | 197° |
| 2026-05-03 23:38 | 22.86779 | -155.66260 | 35925 ft | 427 kts | 197° |
| 2026-05-03 23:38 | 22.83881 | -155.67064 | 35503 ft | 432 kts | 197° |
| 2026-05-03 23:38 | 22.80954 | -155.67877 | 35076 ft | 440 kts | 197° |
| 2026-05-03 23:39 | 22.77961 | -155.68704 | 34614 ft | 446 kts | 197° |
| 2026-05-03 23:39 | 22.74919 | -155.69547 | 34146 ft | 447 kts | 197° |
| 2026-05-03 23:39 | 22.71933 | -155.70371 | 33702 ft | 446 kts | 197° |
| 2026-05-03 23:39 | 22.68895 | -155.71207 | 33205 ft | 448 kts | 197° |
| 2026-05-03 23:40 | 22.65873 | -155.72040 | 32696 ft | 451 kts | 197° |
| 2026-05-03 23:40 | 22.62846 | -155.72873 | 32188 ft | 452 kts | 196° |
| 2026-05-03 23:40 | 22.59787 | -155.73715 | 31671 ft | 451 kts | 197° |
| 2026-05-03 23:40 | 22.56753 | -155.74550 | 31157 ft | 452 kts | 196° |
| 2026-05-03 23:41 | 22.53681 | -155.75394 | 30635 ft | 452 kts | 196° |
| 2026-05-03 23:41 | 22.50658 | -155.76225 | 30121 ft | 451 kts | 196° |
| 2026-05-03 23:41 | 22.47625 | -155.77058 | 29601 ft | 447 kts | 196° |
| 2026-05-03 23:41 | 22.44635 | -155.77878 | 29084 ft | 443 kts | 196° |
| 2026-05-03 23:42 | 22.41656 | -155.78696 | 28569 ft | 438 kts | 195° |
| 2026-05-03 23:42 | 22.38685 | -155.79511 | 28058 ft | 434 kts | 195° |
| 2026-05-03 23:42 | 22.35768 | -155.80312 | 27556 ft | 430 kts | 195° |
| 2026-05-03 23:42 | 22.32873 | -155.81105 | 27070 ft | 428 kts | 195° |
| 2026-05-03 23:43 | 22.29987 | -155.81895 | 26583 ft | 426 kts | 195° |
| 2026-05-03 23:43 | 22.27142 | -155.82675 | 26100 ft | 422 kts | 195° |
| 2026-05-03 23:43 | 22.24304 | -155.83452 | 25624 ft | 419 kts | 195° |
| 2026-05-03 23:43 | 22.21511 | -155.84216 | 25154 ft | 415 kts | 194° |
| 2026-05-03 23:44 | 22.18693 | -155.84987 | 24683 ft | 411 kts | 194° |
| 2026-05-03 23:44 | 22.15940 | -155.85739 | 24228 ft | 409 kts | 194° |
| 2026-05-03 23:44 | 22.13200 | -155.86488 | 23779 ft | 406 kts | 194° |
| 2026-05-03 23:44 | 22.10442 | -155.87242 | 23329 ft | 403 kts | 194° |
| 2026-05-03 23:45 | 22.07741 | -155.87979 | 22884 ft | 400 kts | 194° |
| 2026-05-03 23:45 | 22.05058 | -155.88711 | 22452 ft | 396 kts | 194° |
| 2026-05-03 23:45 | 22.02408 | -155.89435 | 22033 ft | 394 kts | 194° |
| 2026-05-03 23:45 | 21.99735 | -155.90163 | 21614 ft | 393 kts | 194° |
| 2026-05-03 23:46 | 21.97088 | -155.90884 | 21199 ft | 392 kts | 194° |
| 2026-05-03 23:46 | 21.94454 | -155.91602 | 20776 ft | 389 kts | 194° |
| 2026-05-03 23:46 | 21.91826 | -155.92317 | 20353 ft | 385 kts | 194° |
| 2026-05-03 23:46 | 21.89231 | -155.93025 | 19935 ft | 381 kts | 194° |
| 2026-05-03 23:47 | 21.86663 | -155.93724 | 19518 ft | 377 kts | 195° |
| 2026-05-03 23:47 | 21.84139 | -155.94411 | 19114 ft | 375 kts | 195° |
| 2026-05-03 23:47 | 21.81622 | -155.95096 | 18711 ft | 373 kts | 195° |
| 2026-05-03 23:47 | 21.79109 | -155.95779 | 18308 ft | 372 kts | 195° |
| 2026-05-03 23:48 | 21.76597 | -155.96462 | 17899 ft | 371 kts | 195° |
| 2026-05-03 23:48 | 21.74078 | -155.97147 | 17486 ft | 368 kts | 195° |
| 2026-05-03 23:48 | 21.71598 | -155.97819 | 17071 ft | 365 kts | 195° |
| 2026-05-03 23:48 | 21.69150 | -155.98485 | 16657 ft | 362 kts | 195° |
| 2026-05-03 23:49 | 21.66707 | -155.99149 | 16250 ft | 360 kts | 195° |
| 2026-05-03 23:49 | 21.64298 | -155.99802 | 15848 ft | 358 kts | 195° |
| 2026-05-03 23:49 | 21.61885 | -156.00458 | 15440 ft | 355 kts | 195° |
| 2026-05-03 23:49 | 21.59500 | -156.01103 | 15037 ft | 352 kts | 195° |
| 2026-05-03 23:50 | 21.57117 | -156.01750 | 14636 ft | 350 kts | 195° |
| 2026-05-03 23:50 | 21.54785 | -156.02382 | 14240 ft | 348 kts | 195° |
| 2026-05-03 23:50 | 21.52408 | -156.03026 | 13835 ft | 346 kts | 195° |
| 2026-05-03 23:50 | 21.50079 | -156.03656 | 13438 ft | 344 kts | 195° |
| 2026-05-03 23:51 | 21.47776 | -156.04280 | 13053 ft | 343 kts | 195° |
| 2026-05-03 23:51 | 21.45471 | -156.04904 | 12663 ft | 341 kts | 195° |
| 2026-05-03 23:51 | 21.43157 | -156.05530 | 12274 ft | 341 kts | 195° |
| 2026-05-03 23:51 | 21.40867 | -156.06149 | 11880 ft | 339 kts | 194° |
| 2026-05-03 23:52 | 21.38587 | -156.06766 | 11492 ft | 338 kts | 194° |
| 2026-05-03 23:52 | 21.36283 | -156.07388 | 11089 ft | 337 kts | 194° |
| 2026-05-03 23:52 | 21.34025 | -156.07999 | 10704 ft | 334 kts | 194° |
| 2026-05-03 23:52 | 21.31770 | -156.08607 | 10313 ft | 331 kts | 194° |
| 2026-05-03 23:53 | 21.29588 | -156.09196 | 10253 ft | 317 kts | 194° |
| 2026-05-03 23:53 | 21.27494 | -156.09761 | 10228 ft | 302 kts | 194° |
| 2026-05-03 23:53 | 21.25475 | -156.10307 | 10086 ft | 294 kts | 194° |
| 2026-05-03 23:53 | 21.23514 | -156.10837 | 9918 ft | 290 kts | 194° |
| 2026-05-03 23:54 | 21.21546 | -156.11366 | 9642 ft | 293 kts | 194° |
| 2026-05-03 23:54 | 21.19543 | -156.11908 | 9321 ft | 292 kts | 194° |
| 2026-05-03 23:54 | 21.17630 | -156.12520 | 9222 ft | 283 kts | 206° |
| 2026-05-03 23:54 | 21.15972 | -156.13643 | 9095 ft | 289 kts | 215° |
| 2026-05-03 23:55 | 21.14280 | -156.14909 | 8726 ft | 296 kts | 215° |
| 2026-05-03 23:55 | 21.12603 | -156.16176 | 8286 ft | 299 kts | 215° |
| 2026-05-03 23:55 | 21.10911 | -156.17467 | 7785 ft | 297 kts | 215° |
| 2026-05-03 23:55 | 21.09252 | -156.18736 | 7629 ft | 285 kts | 215° |
| 2026-05-03 23:56 | 21.07660 | -156.19957 | 7443 ft | 282 kts | 215° |
| 2026-05-03 23:56 | 21.06077 | -156.21172 | 7286 ft | 277 kts | 215° |
| 2026-05-03 23:56 | 21.04545 | -156.22348 | 7263 ft | 264 kts | 215° |
| 2026-05-03 23:56 | 21.03079 | -156.23476 | 7258 ft | 254 kts | 215° |
| 2026-05-03 23:57 | 21.01612 | -156.24596 | 6935 ft | 261 kts | 215° |
| 2026-05-03 23:57 | 21.00129 | -156.25719 | 6696 ft | 259 kts | 214° |
| 2026-05-03 23:57 | 20.98661 | -156.26833 | 6437 ft | 258 kts | 214° |
| 2026-05-03 23:57 | 20.97199 | -156.27940 | 6177 ft | 256 kts | 214° |
| 2026-05-03 23:58 | 20.95755 | -156.29034 | 5938 ft | 255 kts | 214° |
| 2026-05-03 23:58 | 20.94301 | -156.30136 | 5709 ft | 253 kts | 214° |
| 2026-05-03 23:58 | 20.92870 | -156.31220 | 5515 ft | 250 kts | 214° |
| 2026-05-03 23:58 | 20.91444 | -156.32300 | 5311 ft | 251 kts | 214° |
| 2026-05-03 23:59 | 20.90026 | -156.33374 | 5042 ft | 250 kts | 214° |
| 2026-05-03 23:59 | 20.88620 | -156.34404 | 5031 ft | 239 kts | 211° |
| 2026-05-03 23:59 | 20.87227 | -156.35378 | 5048 ft | 236 kts | 211° |
| 2026-05-03 23:59 | 20.85848 | -156.36342 | 4991 ft | 242 kts | 212° |
| 2026-05-04 00:00 | 20.84426 | -156.37338 | 4841 ft | 241 kts | 211° |
| 2026-05-04 00:00 | 20.83038 | -156.38310 | 4690 ft | 235 kts | 211° |
| 2026-05-04 00:00 | 20.81701 | -156.39249 | 4574 ft | 228 kts | 212° |
| 2026-05-04 00:00 | 20.80381 | -156.40172 | 4401 ft | 227 kts | 211° |
| 2026-05-04 00:01 | 20.79059 | -156.41097 | 4227 ft | 226 kts | 211° |
| 2026-05-04 00:01 | 20.77737 | -156.42023 | 4040 ft | 227 kts | 211° |
| 2026-05-04 00:01 | 20.76400 | -156.42958 | 3805 ft | 227 kts | 211° |
| 2026-05-04 00:01 | 20.75081 | -156.43881 | 3556 ft | 226 kts | 211° |
| 2026-05-04 00:02 | 20.73767 | -156.44800 | 3299 ft | 224 kts | 211° |
| 2026-05-04 00:02 | 20.72455 | -156.45718 | 3042 ft | 223 kts | 211° |
| 2026-05-04 00:02 | 20.71184 | -156.46608 | 2982 ft | 211 kts | 211° |
| 2026-05-04 00:02 | 20.69987 | -156.47450 | 2968 ft | 201 kts | 212° |
| 2026-05-04 00:03 | 20.69101 | -156.48570 | 2974 ft | 203 kts | 250° |
| 2026-05-04 00:03 | 20.69036 | -156.50067 | 3017 ft | 209 kts | 288° |
| 2026-05-04 00:03 | 20.69552 | -156.51537 | 2954 ft | 213 kts | 296° |
| 2026-05-04 00:03 | 20.70366 | -156.52838 | 2787 ft | 205 kts | 325° |
| 2026-05-04 00:04 | 20.71617 | -156.53395 | 2662 ft | 191 kts | 358° |
| 2026-05-04 00:04 | 20.72908 | -156.53465 | 2577 ft | 179 kts | 2° |
| 2026-05-04 00:04 | 20.74130 | -156.53522 | 2442 ft | 167 kts | 2° |
| 2026-05-04 00:04 | 20.75249 | -156.53477 | 2446 ft | 156 kts | 21° |
| 2026-05-04 00:05 | 20.76199 | -156.52919 | 2540 ft | 160 kts | 39° |
| 2026-05-04 00:05 | 20.77158 | -156.52231 | 2488 ft | 169 kts | 37° |
| 2026-05-04 00:05 | 20.78114 | -156.51556 | 2455 ft | 162 kts | 37° |
| 2026-05-04 00:05 | 20.79067 | -156.50868 | 2324 ft | 167 kts | 38° |
| 2026-05-04 00:06 | 20.80022 | -156.50172 | 2111 ft | 165 kts | 37° |
| 2026-05-04 00:06 | 20.80948 | -156.49497 | 1914 ft | 158 kts | 38° |
| 2026-05-04 00:06 | 20.81866 | -156.48820 | 1712 ft | 159 kts | 38° |
| 2026-05-04 00:06 | 20.82775 | -156.48152 | 1512 ft | 156 kts | 38° |
| 2026-05-04 00:07 | 20.83656 | -156.47504 | 1323 ft | 146 kts | 38° |
| 2026-05-04 00:07 | 20.84476 | -156.46896 | 1119 ft | 142 kts | 37° |
| 2026-05-04 00:07 | 20.85274 | -156.46309 | 934 ft | 137 kts | 36° |
| 2026-05-04 00:07 | 20.86064 | -156.45737 | 757 ft | 137 kts | 35° |
| 2026-05-04 00:08 | 20.86861 | -156.45189 | 615 ft | 136 kts | 36° |
| 2026-05-04 00:08 | 20.87634 | -156.44588 | 428 ft | 137 kts | 38° |
| 2026-05-04 00:08 | 20.88405 | -156.44022 | 241 ft | 133 kts | 36° |
| 2026-05-04 00:08 | 20.89149 | -156.43457 | 90 ft | 127 kts | 35° |
| 2026-05-04 00:09 | 20.89674 | -156.43068 | 59 ft | 50 kts | 36° |
| 2026-05-04 00:09 | 20.89889 | -156.42906 | 52 ft | 24 kts | 35° |
| 2026-05-04 00:09 | 20.89974 | -156.42891 | 48 ft | 9 kts | 337° |
| 2026-05-04 00:09 | 20.90009 | -156.42947 | 47 ft | 10 kts | 266° |
| 2026-05-04 00:10 | 20.89947 | -156.43024 | 48 ft | 17 kts | 214° |
| 2026-05-04 00:10 | 20.89842 | -156.43100 | 51 ft | 18 kts | 215° |
| 2026-05-04 00:10 | 20.89741 | -156.43176 | 55 ft | 17 kts | 215° |
| 2026-05-04 00:10 | 20.89646 | -156.43247 | 59 ft | 15 kts | 216° |
| 2026-05-04 00:11 | 20.89622 | -156.43298 | 59 ft | 8 kts | 289° |
| 2026-05-04 00:11 | 20.89651 | -156.43350 | 57 ft | 5 kts | 306° |
| 2026-05-04 00:11 | 20.89669 | -156.43376 | 55 ft | 4 kts | 306° |
| 2026-05-04 00:11 | 20.89676 | -156.43385 | 55 ft | 0 kts | 306° |